Time;durP1;ratioP1;P1;durP2;ratioP2;P2;SDS_P1;SDS_P2;PMS_P1;PMS_P2;Temp;Humidity;BMP_temperature;BMP_pressure;BME280_temperature;BME280_humidity;BME280_pressure;Samples;Min_cycle;Max_cycle;Signal;HPM_P1;HPM_P2
2022/08/31 00:05:58;;;;;;;2.75;0.60;;;;;;;15.78;91.12;102491.94;4970048;28;20280;-78
2022/08/31 00:08:28;;;;;;;0.55;0.55;;;;;;;15.75;91.25;102490.16;4946252;28;20046;-78
2022/08/31 00:10:58;;;;;;;1.15;0.80;;;;;;;15.74;90.73;102495.47;4951209;28;20063;-80
2022/08/31 00:13:29;;;;;;;0.90;0.50;;;;;;;15.72;90.95;102492.75;4987116;28;20073;-79
2022/08/31 00:15:58;;;;;;;0.70;0.50;;;;;;;15.70;89.84;102491.84;4961847;28;20131;-78
2022/08/31 00:18:26;;;;;;;1.52;0.50;;;;;;;15.68;90.33;102501.56;4981996;28;20042;-79
2022/08/31 00:20:55;;;;;;;0.68;0.45;;;;;;;15.68;90.28;102492.72;4967582;28;20069;-77
2022/08/31 00:23:24;;;;;;;1.35;0.80;;;;;;;15.67;91.03;102488.28;4945489;28;20049;-77
2022/08/31 00:25:53;;;;;;;0.85;0.63;;;;;;;15.65;91.03;102498.00;4968485;28;20169;-78
2022/08/31 00:28:21;;;;;;;0.40;0.40;;;;;;;15.62;90.89;102496.22;4967787;28;20051;-78
2022/08/31 00:30:50;;;;;;;0.50;0.50;;;;;;;15.60;91.28;102488.22;4943137;28;20415;-77
2022/08/31 00:33:18;;;;;;;0.63;0.45;;;;;;;15.58;91.34;102495.31;4946369;28;20051;-79
2022/08/31 00:35:47;;;;;;;0.47;0.47;;;;;;;15.54;90.77;102487.31;4943608;28;20042;-78
2022/08/31 00:38:15;;;;;;;0.57;0.57;;;;;;;15.53;91.12;102482.84;4983053;28;20047;-79
2022/08/31 00:40:45;;;;;;;0.57;0.57;;;;;;;15.52;91.12;102489.94;4940607;28;20292;-80
2022/08/31 00:43:37;;;;;;;1.98;0.50;;;;;;;15.50;90.87;102489.03;4987515;28;20561;-78
2022/08/31 00:46:08;;;;;;;0.55;0.50;;;;;;;15.48;90.90;102488.13;4956348;28;20133;-78
2022/08/31 00:48:43;;;;;;;0.73;0.52;;;;;;;15.46;90.50;102483.66;4965732;28;20035;-79
2022/08/31 00:51:12;;;;;;;1.30;0.55;;;;;;;15.43;90.71;102479.22;4992199;28;20391;-78
2022/08/31 00:53:47;;;;;;;2.65;0.63;;;;;;;15.41;91.02;102486.28;4909857;28;20051;-78
2022/08/31 00:56:18;;;;;;;1.10;0.50;;;;;;;15.39;91.04;102485.41;4972022;28;20057;-78
2022/08/31 00:58:49;;;;;;;0.85;0.50;;;;;;;15.38;91.33;102478.28;4969045;28;20046;-80
2022/08/31 01:01:22;;;;;;;0.50;0.50;;;;;;;15.35;91.34;102481.81;4961015;28;20768;-77
2022/08/31 01:03:53;;;;;;;0.50;0.50;;;;;;;15.32;91.53;102487.09;4976445;28;20259;-79
2022/08/31 01:06:22;;;;;;;1.95;0.50;;;;;;;15.30;91.18;102486.19;4967058;28;20047;-77
2022/08/31 01:08:52;;;;;;;2.17;0.57;;;;;;;15.29;91.36;102487.09;4965569;28;20046;-77
2022/08/31 01:11:21;;;;;;;1.25;0.50;;;;;;;15.29;91.10;102488.81;4906448;28;20249;-77
2022/08/31 01:13:49;;;;;;;2.45;0.70;;;;;;;15.27;91.61;102486.16;4984181;28;20043;-78
2022/08/31 01:16:27;;;;;;;0.40;0.40;;;;;;;15.26;90.88;102489.69;4948297;28;20066;-78
2022/08/31 01:19:00;;;;;;;0.55;0.55;;;;;;;15.25;91.52;102484.34;4983387;28;20038;-77
2022/08/31 01:21:40;;;;;;;5.55;0.55;;;;;;;15.24;91.06;102499.41;4965085;28;20367;-77
2022/08/31 01:24:11;;;;;;;0.93;0.43;;;;;;;15.23;91.60;102494.97;4967558;28;20038;-77
2022/08/31 01:26:40;;;;;;;0.93;0.90;;;;;;;15.23;91.47;102494.97;4961447;28;20042;-77
2022/08/31 01:29:09;;;;;;;1.00;0.50;;;;;;;15.23;90.85;102491.44;4953771;28;20035;-78
2022/08/31 01:31:44;;;;;;;0.85;0.50;;;;;;;15.21;90.82;102496.72;4951737;28;20046;-78
2022/08/31 01:34:13;;;;;;;0.60;0.60;;;;;;;15.21;91.07;102494.94;4954846;28;20030;-77
2022/08/31 01:36:43;;;;;;;0.95;0.40;;;;;;;15.21;90.81;102494.06;4970390;28;20054;-79
2022/08/31 01:39:12;;;;;;;0.60;0.60;;;;;;;15.21;91.42;102494.06;4982755;28;20419;-78
2022/08/31 01:41:42;;;;;;;0.70;0.70;;;;;;;15.19;91.37;102496.69;4932521;28;20293;-78
2022/08/31 01:44:18;;;;;;;0.45;0.45;;;;;;;15.18;91.84;102491.41;4979706;28;20046;-78
2022/08/31 01:46:47;;;;;;;0.60;0.60;;;;;;;15.17;92.73;102498.44;4965563;28;20043;-77
2022/08/31 01:49:18;;;;;;;0.75;0.50;;;;;;;15.14;92.60;102494.84;4949899;28;20038;-78
2022/08/31 01:51:48;;;;;;;2.15;0.68;;;;;;;15.12;93.37;102494.88;4972015;28;20046;-78
2022/08/31 01:54:18;;;;;;;2.00;0.50;;;;;;;15.11;93.11;102494.84;4987935;28;20378;-79
2022/08/31 01:56:47;;;;;;;0.53;0.50;;;;;;;15.09;93.65;102501.91;4959468;28;20496;-77
2022/08/31 01:59:21;;;;;;;0.57;0.57;;;;;;;15.06;94.17;102500.09;4943825;28;20046;-78
2022/08/31 02:02:19;;;;;;;1.50;0.40;;;;;;;15.05;94.81;102495.69;4971799;28;20360;-77
2022/08/31 02:04:47;;;;;;;0.50;0.50;;;;;;;15.04;95.34;102496.53;4974934;28;20044;-78
2022/08/31 02:07:20;;;;;;;0.43;0.43;;;;;;;15.02;94.98;102498.28;4960941;28;20411;-77
2022/08/31 02:09:49;;;;;;;0.50;0.50;;;;;;;15.01;95.25;102497.41;4956984;28;20042;-77
2022/08/31 02:12:18;;;;;;;0.57;0.50;;;;;;;14.99;95.80;102499.16;4941841;28;20640;-79
2022/08/31 02:14:46;;;;;;;0.50;0.50;;;;;;;14.98;96.65;102494.69;5003309;28;20053;-78
2022/08/31 02:17:15;;;;;;;0.70;0.70;;;;;;;14.98;96.88;102494.69;4968197;28;20077;-77
2022/08/31 02:19:44;;;;;;;1.10;0.85;;;;;;;14.98;97.12;102501.78;4969392;28;20039;-78
2022/08/31 02:22:14;;;;;;;2.05;0.65;;;;;;;14.96;97.49;102501.75;4952178;28;20050;-78
2022/08/31 02:24:43;;;;;;;1.63;0.73;;;;;;;14.95;98.14;102502.66;4935383;28;20042;-78
2022/08/31 02:27:12;;;;;;;3.03;0.80;;;;;;;14.94;98.67;102500.84;4962444;28;20034;-78
2022/08/31 02:29:41;;;;;;;0.68;0.68;;;;;;;14.94;98.78;102494.66;4986324;28;20377;-78
2022/08/31 02:32:10;;;;;;;1.85;0.70;;;;;;;14.93;99.11;102498.19;4976280;28;20045;-78
2022/08/31 02:34:48;;;;;;;2.97;0.70;;;;;;;14.93;99.48;102496.44;4966420;28;20034;-78
2022/08/31 02:37:17;;;;;;;4.20;0.57;;;;;;;14.93;99.26;102498.19;4963743;28;20116;-77
2022/08/31 02:39:48;;;;;;;0.60;0.57;;;;;;;14.93;100.00;102495.53;4982049;28;20363;-77
2022/08/31 02:42:19;;;;;;;1.10;0.80;;;;;;;14.91;100.00;102492.84;4966421;28;20232;-78
2022/08/31 02:44:50;;;;;;;;;;;;;;;14.92;100.00;102493.75;4934990;28;20038;-77
2022/08/31 02:47:18;;;;;;;1.65;0.63;;;;;;;14.90;100.00;102493.75;5014171;28;20536;-78
2022/08/31 02:50:07;;;;;;;1.65;0.70;;;;;;;14.91;100.00;102492.84;4974468;28;20487;-78
2022/08/31 02:52:36;;;;;;;0.63;0.60;;;;;;;14.91;100.00;102495.50;4979837;28;20511;-78
2022/08/31 02:55:07;;;;;;;1.10;0.60;;;;;;;14.92;100.00;102504.38;4983743;28;20049;-78
2022/08/31 02:57:36;;;;;;;1.40;0.52;;;;;;;14.93;100.00;102496.44;4965929;28;20053;-77
2022/08/31 03:00:07;;;;;;;0.57;0.57;;;;;;;14.93;100.00;102496.44;4970293;28;20061;-77
2022/08/31 03:02:36;;;;;;;1.27;0.82;;;;;;;14.93;99.96;102492.88;4973596;28;20042;-79
2022/08/31 03:05:09;;;;;;;2.15;1.05;;;;;;;14.92;100.00;102491.09;4997588;28;20148;-79
2022/08/31 03:07:38;;;;;;;0.60;0.60;;;;;;;14.91;100.00;102484.88;4977516;28;20397;-78
2022/08/31 03:10:10;;;;;;;0.77;0.68;;;;;;;14.90;100.00;102492.84;4985975;28;20042;-79
2022/08/31 03:12:39;;;;;;;0.70;0.70;;;;;;;14.89;100.00;102491.06;4991516;28;20049;-78
2022/08/31 03:15:09;;;;;;;0.88;0.77;;;;;;;14.87;100.00;102493.69;4929067;28;20411;-78
2022/08/31 03:17:38;;;;;;;0.60;0.60;;;;;;;14.86;100.00;102493.66;4958604;28;20050;-78
2022/08/31 03:20:13;;;;;;;1.77;0.70;;;;;;;14.83;100.00;102491.88;4975135;28;20044;-77
2022/08/31 03:22:41;;;;;;;1.08;0.88;;;;;;;14.79;100.00;102490.06;4984191;28;20411;-77
2022/08/31 03:25:15;;;;;;;0.68;0.68;;;;;;;14.75;100.00;102485.59;4976850;28;20038;-79
2022/08/31 03:27:44;;;;;;;0.60;0.60;;;;;;;14.71;100.00;102497.94;4974523;28;20435;-79
2022/08/31 03:30:16;;;;;;;0.70;0.70;;;;;;;14.68;100.00;102486.38;4970264;28;20120;-78
2022/08/31 03:32:52;;;;;;;2.72;0.73;;;;;;;14.64;100.00;102488.13;4963978;28;20042;-78
2022/08/31 03:35:27;;;;;;;1.75;0.70;;;;;;;14.62;100.00;102484.56;4948423;28;20034;-78
2022/08/31 03:37:56;;;;;;;3.60;0.73;;;;;;;14.59;100.00;102493.38;4991019;28;20056;-78
2022/08/31 03:40:24;;;;;;;0.55;0.55;;;;;;;14.57;100.00;102495.13;4960373;28;20249;-78
2022/08/31 03:42:56;;;;;;;0.70;0.70;;;;;;;14.56;100.00;102495.06;4976095;28;20046;-78
2022/08/31 03:45:28;;;;;;;0.82;0.80;;;;;;;14.52;100.00;102493.25;4917643;28;20185;-78
2022/08/31 03:47:58;;;;;;;0.73;0.68;;;;;;;14.50;100.00;102492.31;4973989;28;20523;-78
2022/08/31 03:50:27;;;;;;;1.38;0.60;;;;;;;14.48;100.00;102497.63;4973300;28;20727;-79
2022/08/31 03:53:04;;;;;;;2.10;0.60;;;;;;;14.43;100.00;102494.88;4982204;28;20061;-78
2022/08/31 03:55:35;;;;;;;0.80;0.80;;;;;;;14.42;100.00;102505.47;4967389;28;20043;-77
2022/08/31 03:58:05;;;;;;;1.75;0.57;;;;;;;14.39;100.00;102505.44;4998644;28;20043;-78
2022/08/31 04:00:35;;;;;;;0.73;0.73;;;;;;;14.37;100.00;102510.72;4926130;28;20038;-78
2022/08/31 04:03:10;;;;;;;0.77;0.77;;;;;;;14.36;100.00;102506.28;4972371;28;20525;-77
2022/08/31 04:05:57;;;;;;;2.28;0.90;;;;;;;14.31;100.00;102510.63;4962287;28;20034;-78
2022/08/31 04:08:46;;;;;;;1.45;0.73;;;;;;;14.30;100.00;102511.50;4958079;28;20066;-79
2022/08/31 04:11:44;;;;;;;2.53;1.00;;;;;;;14.29;100.00;102504.44;4962043;28;20061;-78
2022/08/31 04:14:32;;;;;;;1.13;0.73;;;;;;;14.30;100.00;102505.31;4975167;28;20043;-78
2022/08/31 04:17:19;;;;;;;0.85;0.85;;;;;;;14.30;100.00;102506.19;4948057;28;20058;-78
2022/08/31 04:19:54;;;;;;;1.27;0.80;;;;;;;14.31;100.00;102509.72;4972808;28;20045;-78
2022/08/31 04:22:48;;;;;;;0.70;0.70;;;;;;;14.30;100.00;102511.50;4964452;28;20054;-78
2022/08/31 04:25:30;;;;;;;0.85;0.85;;;;;;;14.30;100.00;102508.84;4960483;28;20042;-78
2022/08/31 04:28:01;;;;;;;0.77;0.77;;;;;;;14.30;100.00;102510.63;4975561;28;20034;-77
2022/08/31 04:30:31;;;;;;;2.63;0.88;;;;;;;14.29;100.00;102515.03;4987432;28;20041;-78
2022/08/31 04:33:00;;;;;;;0.65;0.65;;;;;;;14.28;100.00;102518.53;4952089;28;20049;-78
2022/08/31 04:35:29;;;;;;;1.13;1.02;;;;;;;14.27;100.00;102519.41;5008198;28;20050;-77
2022/08/31 04:37:58;;;;;;;0.80;0.80;;;;;;;14.26;100.00;102520.28;4949532;28;20475;-79
2022/08/31 04:40:27;;;;;;;0.55;0.50;;;;;;;14.24;100.00;102514.06;4975202;28;20178;-77
2022/08/31 04:42:58;;;;;;;2.60;0.50;;;;;;;14.25;100.00;102531.75;4965852;28;20049;-77
2022/08/31 04:45:28;;;;;;;1.83;0.70;;;;;;;14.23;100.00;102526.44;4976154;28;20521;-77
2022/08/31 04:47:56;;;;;;;0.70;0.70;;;;;;;14.26;100.00;102532.66;4926627;28;20046;-77
2022/08/31 04:50:25;;;;;;;0.75;0.75;;;;;;;14.26;100.00;102522.06;4962666;28;20050;-78
2022/08/31 04:53:08;;;;;;;0.85;0.70;;;;;;;14.26;100.00;102520.28;4961769;28;20042;-78
2022/08/31 04:55:41;;;;;;;0.65;0.65;;;;;;;14.26;100.00;102536.19;4994360;28;20035;-78
2022/08/31 04:58:12;;;;;;;3.40;0.60;;;;;;;14.25;100.00;102534.38;4946373;28;20160;-77
2022/08/31 05:00:42;;;;;;;2.22;0.70;;;;;;;14.24;100.00;102525.56;4992052;28;20049;-78
2022/08/31 05:03:18;;;;;;;1.65;1.20;;;;;;;14.23;100.00;102526.44;4926042;28;20038;-79
2022/08/31 05:05:51;;;;;;;2.35;0.90;;;;;;;14.22;100.00;102527.28;4946904;28;20062;-78
2022/08/31 05:08:19;;;;;;;2.75;0.98;;;;;;;14.22;100.00;102527.28;4979659;28;20280;-78
2022/08/31 05:10:54;;;;;;;2.70;1.98;;;;;;;14.23;100.00;102530.81;4922428;28;20042;-77
2022/08/31 05:13:23;;;;;;;1.73;0.85;;;;;;;14.24;100.00;102529.97;4960845;28;20149;-77
2022/08/31 05:15:53;;;;;;;0.93;0.82;;;;;;;14.27;100.00;102534.41;4978537;28;20045;-78
2022/08/31 05:18:24;;;;;;;1.25;0.77;;;;;;;14.27;100.00;102535.31;4952113;28;20049;-77
2022/08/31 05:21:09;;;;;;;1.83;0.70;;;;;;;14.28;100.00;102542.41;4964477;28;20045;-78
2022/08/31 05:23:39;;;;;;;0.80;0.80;;;;;;;14.28;100.00;102537.09;4963556;28;20081;-79
2022/08/31 05:26:08;;;;;;;1.55;0.70;;;;;;;14.31;100.00;102537.16;4954480;28;20038;-78
2022/08/31 05:28:38;;;;;;;1.33;0.88;;;;;;;14.35;100.00;102535.44;4963263;28;20043;-78
2022/08/31 05:31:06;;;;;;;0.70;0.70;;;;;;;14.38;100.00;102552.25;4965219;28;20045;-79
2022/08/31 05:33:44;;;;;;;0.73;0.73;;;;;;;14.40;100.00;102539.94;4910253;28;20046;-77
2022/08/31 05:36:15;;;;;;;;;;;;;;;14.41;100.00;102533.75;4937808;28;20047;-77
2022/08/31 05:38:43;;;;;;;0.80;0.80;;;;;;;14.46;100.00;102540.88;4975487;28;19922;-78
2022/08/31 05:41:13;;;;;;;0.70;0.70;;;;;;;14.49;100.00;102540.94;4923936;28;20253;-77
2022/08/31 05:43:42;;;;;;;1.33;1.00;;;;;;;14.52;100.00;102544.53;4974173;28;20501;-78
2022/08/31 05:46:13;;;;;;;0.77;0.77;;;;;;;14.56;100.00;102541.03;4969443;28;20050;-78
2022/08/31 05:48:43;;;;;;;1.67;0.93;;;;;;;14.60;100.00;102545.53;4937597;28;20069;-79
2022/08/31 05:51:19;;;;;;;0.68;0.68;;;;;;;14.67;100.00;102542.97;4954612;28;20500;-79
2022/08/31 05:53:48;;;;;;;0.65;0.65;;;;;;;14.71;100.00;102545.69;4971481;28;20504;-79
2022/08/31 05:56:20;;;;;;;0.73;0.73;;;;;;;14.76;100.00;102549.31;4965386;28;20057;-80
2022/08/31 05:58:54;;;;;;;0.90;0.90;;;;;;;14.84;100.00;102535.22;5001360;28;20049;-78
2022/08/31 06:01:31;;;;;;;5.65;1.33;;;;;;;14.92;100.00;102539.75;4953563;28;20042;-78
2022/08/31 06:04:19;;;;;;;2.17;1.20;;;;;;;15.01;100.00;102550.50;4922082;28;20042;-79
2022/08/31 06:06:47;;;;;;;0.80;0.80;;;;;;;15.07;100.00;102547.03;4983599;28;20053;-79
2022/08/31 06:09:21;;;;;;;2.08;1.00;;;;;;;15.13;100.00;102552.41;4966589;28;20049;-77
2022/08/31 06:11:52;;;;;;;0.77;0.77;;;;;;;15.17;100.00;102553.31;4962565;28;20042;-78
2022/08/31 06:14:21;;;;;;;1.40;1.08;;;;;;;15.21;100.00;102547.16;4960245;28;20043;-78
2022/08/31 06:16:54;;;;;;;;;;;;;;;15.25;100.00;102550.75;4982777;28;20042;-78
2022/08/31 06:19:22;;;;;;;0.90;0.90;;;;;;;15.27;100.00;102555.19;4951494;28;19930;-79
2022/08/31 06:21:54;;;;;;;0.80;0.80;;;;;;;15.39;100.00;102562.44;4943821;28;20062;-78
2022/08/31 06:24:25;;;;;;;3.03;1.40;;;;;;;15.71;100.00;102569.84;4965626;28;20050;-78
2022/08/31 06:26:57;;;;;;;0.80;0.80;;;;;;;15.83;100.00;102563.75;4941280;28;20047;-79
2022/08/31 06:29:34;;;;;;;2.92;2.17;;;;;;;15.85;100.00;102562.00;4951557;28;20058;-78
2022/08/31 06:32:08;;;;;;;0.82;0.82;;;;;;;15.86;100.00;102561.09;4956783;28;20045;-78
2022/08/31 06:34:48;;;;;;;1.55;0.85;;;;;;;15.86;100.00;102564.69;4972108;28;20054;-78
2022/08/31 06:37:40;;;;;;;2.55;1.00;;;;;;;15.88;100.00;102565.59;4948099;28;20141;-79
2022/08/31 06:40:28;;;;;;;1.25;0.82;;;;;;;15.91;100.00;102573.56;4994255;28;20057;-79
2022/08/31 06:43:15;;;;;;;4.80;1.10;;;;;;;16.04;100.00;102568.38;4987339;28;20404;-79
2022/08/31 06:45:57;;;;;;;2.53;1.02;;;;;;;16.15;100.00;102572.00;4966211;28;20041;-79
2022/08/31 06:48:34;;;;;;;2.35;1.67;;;;;;;16.25;100.00;102572.94;5005662;28;20254;-78
2022/08/31 06:51:05;;;;;;;1.20;1.00;;;;;;;16.33;100.00;102577.47;4962522;28;20049;-79
2022/08/31 06:53:39;;;;;;;3.22;1.10;;;;;;;16.36;100.00;102577.47;5000565;28;20037;-78
2022/08/31 06:56:31;;;;;;;2.72;0.90;;;;;;;16.44;100.00;102573.97;4996254;28;20603;-79
2022/08/31 06:59:37;;;;;;;2.15;0.77;;;;;;;16.65;100.00;102571.41;4996529;28;20163;-79
2022/08/31 07:02:21;;;;;;;2.20;1.10;;;;;;;16.76;100.00;102572.38;4982282;28;20053;-79
2022/08/31 07:04:52;;;;;;;1.73;0.80;;;;;;;16.83;100.00;102583.09;4980780;28;20053;-79
2022/08/31 07:07:21;;;;;;;0.95;0.90;;;;;;;16.86;100.00;102577.78;4952008;28;20384;-78
2022/08/31 07:09:51;;;;;;;2.15;0.70;;;;;;;16.94;100.00;102576.06;4961757;28;20042;-79
2022/08/31 07:12:19;;;;;;;1.13;1.00;;;;;;;17.14;100.00;102578.78;4964024;28;20050;-79
2022/08/31 07:14:49;;;;;;;1.98;1.58;;;;;;;17.36;100.00;102582.41;4927559;28;20072;-78
2022/08/31 07:17:24;;;;;;;0.70;0.70;;;;;;;17.65;100.00;102584.22;4980563;28;20065;-79
2022/08/31 07:19:52;;;;;;;2.15;0.70;;;;;;;17.87;100.00;102582.50;4950281;28;20058;-79
2022/08/31 07:22:22;;;;;;;1.42;1.08;;;;;;;18.04;100.00;102578.06;4961427;28;21460;-79
2022/08/31 07:24:56;;;;;;;2.33;0.88;;;;;;;18.16;98.74;102577.16;4977976;28;20049;-79
2022/08/31 07:27:24;;;;;;;0.55;0.55;;;;;;;18.18;98.57;102580.72;4981008;28;20061;-78
2022/08/31 07:29:58;;;;;;;1.98;1.00;;;;;;;18.14;97.79;102578.94;4962189;28;20049;-78
2022/08/31 07:32:32;;;;;;;1.75;0.80;;;;;;;18.03;96.35;102588.72;4953071;28;21831;-79
2022/08/31 07:35:01;;;;;;;1.48;0.90;;;;;;;17.85;95.97;102584.28;4973871;28;20048;-79
2022/08/31 07:43:27;;;;;;;0.63;0.60;;;;;;;17.70;96.87;102586.00;4964930;28;20039;-78
2022/08/31 07:45:56;;;;;;;2.88;0.80;;;;;;;17.66;97.32;102578.91;4982144;28;20514;-78
2022/08/31 07:48:26;;;;;;;1.70;0.70;;;;;;;17.68;97.82;102582.47;4958064;28;20593;-78
2022/08/31 07:51:16;;;;;;;1.15;0.80;;;;;;;17.74;97.55;102582.44;4981350;28;20046;-78
2022/08/31 07:53:55;;;;;;;1.65;1.50;;;;;;;17.78;97.50;102577.13;4963386;28;20038;-78
2022/08/31 07:56:28;;;;;;;5.22;2.88;;;;;;;17.88;98.25;102578.94;4978028;28;20265;-78
2022/08/31 07:59:10;;;;;;;1.17;1.13;;;;;;;17.97;97.38;102576.28;4987981;28;20060;-78
2022/08/31 08:01:41;;;;;;;3.35;0.90;;;;;;;18.03;97.46;102580.72;4978120;28;20274;-80
2022/08/31 08:04:14;;;;;;;0.70;0.70;;;;;;;18.05;97.06;102586.94;4992794;28;20391;-78
2022/08/31 08:07:06;;;;;;;1.27;0.52;;;;;;;18.08;96.48;102578.94;4986673;28;20054;-78
2022/08/31 08:10:12;;;;;;;0.98;0.70;;;;;;;18.16;96.46;102593.16;4975992;28;20537;-78
2022/08/31 08:13:11;;;;;;;1.38;1.10;;;;;;;18.24;95.72;102585.16;4986682;28;20046;-79
2022/08/31 08:15:50;;;;;;;3.33;1.25;;;;;;;18.35;94.99;102582.47;4968211;28;20041;-78
2022/08/31 08:18:29;;;;;;;1.05;1.00;;;;;;;18.48;95.34;102584.22;4997109;28;20773;-79
2022/08/31 08:21:01;;;;;;;1.05;0.85;;;;;;;18.62;94.42;102584.19;4988958;28;20044;-78
2022/08/31 08:23:30;;;;;;;2.22;1.35;;;;;;;18.75;94.11;102587.72;4971532;28;20038;-79
2022/08/31 08:26:17;;;;;;;4.88;1.00;;;;;;;18.97;94.15;102594.78;4974117;28;20042;-78
2022/08/31 08:29:10;;;;;;;;;;;;;;;19.16;89.88;102586.69;4993177;28;20050;-80
2022/08/31 08:31:50;;;;;;;2.33;0.80;;;;;;;19.39;91.87;102590.13;4979541;28;19922;-79
2022/08/31 08:34:21;;;;;;;0.50;0.50;;;;;;;19.56;89.68;102599.84;4981688;28;20045;-78
2022/08/31 08:37:04;;;;;;;2.47;0.60;;;;;;;19.66;88.25;102596.22;4991345;28;20046;-79
2022/08/31 08:39:33;;;;;;;0.50;0.50;;;;;;;19.75;87.23;102595.28;4954734;28;21591;-80
2022/08/31 08:42:14;;;;;;;0.90;0.70;;;;;;;19.74;84.85;102598.88;4991634;28;20046;-79
2022/08/31 08:44:43;;;;;;;1.75;0.40;;;;;;;19.78;84.44;102598.81;4992133;28;20037;-80
2022/08/31 08:47:21;;;;;;;1.17;0.50;;;;;;;19.86;82.92;102602.31;4929743;28;20548;-81
2022/08/31 08:50:02;;;;;;;1.80;1.13;;;;;;;19.89;82.76;102601.41;4963660;28;20043;-80
2022/08/31 08:52:35;;;;;;;1.00;0.75;;;;;;;19.96;81.45;102604.91;4934818;28;20484;-81
2022/08/31 08:55:08;;;;;;;1.75;0.70;;;;;;;19.98;80.43;102601.34;4945628;28;20059;-80
2022/08/31 08:57:41;;;;;;;3.70;0.90;;;;;;;19.96;80.21;102607.59;4948501;28;20277;-80
2022/08/31 09:00:24;;;;;;;2.15;0.90;;;;;;;20.07;81.30;102605.72;4920486;28;20053;-81
2022/08/31 09:03:15;;;;;;;1.13;0.52;;;;;;;20.18;79.90;102595.81;4930607;28;20055;-80
2022/08/31 09:06:18;;;;;;;0.70;0.63;;;;;;;20.02;79.24;102591.50;4934814;28;20055;-80
2022/08/31 09:09:07;;;;;;;2.10;0.70;;;;;;;19.87;78.74;102600.56;4949536;28;20069;-80
2022/08/31 09:12:10;;;;;;;4.30;0.88;;;;;;;19.85;77.32;102594.31;4920961;28;20047;-81
2022/08/31 09:15:06;;;;;;;0.60;0.60;;;;;;;19.81;79.05;102604.16;4939685;28;20051;-80
2022/08/31 09:17:59;;;;;;;0.85;0.65;;;;;;;19.86;76.59;102593.41;4950760;28;20325;-79
2022/08/31 09:20:32;;;;;;;0.50;0.50;;;;;;;19.92;78.19;102605.84;4982280;28;20046;-81
2022/08/31 09:23:05;;;;;;;1.45;0.50;;;;;;;19.87;78.48;102595.19;4983442;28;20038;-79
2022/08/31 09:25:50;;;;;;;1.90;0.60;;;;;;;19.85;79.05;102589.84;4987332;28;20264;-80
2022/08/31 09:28:46;;;;;;;0.60;0.60;;;;;;;19.98;79.88;102598.69;4966577;28;20046;-80
2022/08/31 09:31:33;;;;;;;3.20;0.70;;;;;;;20.09;78.59;102592.31;5001686;28;20392;-80
2022/08/31 09:34:04;;;;;;;1.17;0.60;;;;;;;20.18;78.38;102587.78;4989592;28;20026;-79
2022/08/31 09:36:39;;;;;;;1.95;0.60;;;;;;;20.29;78.35;102592.16;4995103;28;20054;-81
2022/08/31 09:39:29;;;;;;;0.45;0.45;;;;;;;20.31;74.58;102591.22;5005919;28;20507;-80
2022/08/31 09:42:16;;;;;;;1.27;1.17;;;;;;;20.28;76.02;102587.69;4950272;28;20046;-81
2022/08/31 09:44:46;;;;;;;;;;;;;;;20.08;71.89;102586.09;4998789;28;20145;-79
2022/08/31 09:47:46;;;;;;;3.38;0.68;;;;;;;19.96;75.00;102588.88;4980770;28;20291;-80
2022/08/31 09:50:32;;;;;;;2.38;0.70;;;;;;;20.02;75.99;102580.81;4991869;28;20049;-80
2022/08/31 09:56:13;;;;;;;2.17;0.85;;;;;;;20.13;73.86;102572.66;4998549;28;20403;-80
2022/08/31 09:59:01;;;;;;;0.52;0.50;;;;;;;20.21;70.19;102574.38;4975143;28;20085;-80
2022/08/31 10:01:43;;;;;;;1.05;0.70;;;;;;;20.29;73.00;102565.38;4972522;28;20275;-80
2022/08/31 10:04:14;;;;;;;2.33;1.13;;;;;;;20.44;73.20;102573.25;4990103;28;20400;-81
2022/08/31 10:07:10;;;;;;;0.60;0.60;;;;;;;20.60;71.21;102574.00;4950734;28;20049;-82
2022/08/31 10:09:45;;;;;;;2.92;1.08;;;;;;;20.64;69.66;102565.94;4989709;28;20038;-79
2022/08/31 10:12:37;;;;;;;3.90;1.33;;;;;;;20.79;69.69;102572.00;4963390;28;20042;-81
2022/08/31 10:15:09;;;;;;;1.05;0.85;;;;;;;21.01;69.14;102560.09;4990402;28;20053;-79
2022/08/31 10:17:54;;;;;;;6.45;0.50;;;;;;;21.18;68.57;102567.91;4968234;28;20054;-78
2022/08/31 10:20:29;;;;;;;0.73;0.55;;;;;;;21.17;65.48;102562.56;4988703;28;20042;-80
2022/08/31 10:23:13;;;;;;;1.40;0.57;;;;;;;21.18;66.05;102564.34;4992935;28;20518;-79
2022/08/31 10:25:56;;;;;;;0.63;0.45;;;;;;;21.14;66.13;102559.94;4999798;28;20050;-80
2022/08/31 10:28:39;;;;;;;0.45;0.40;;;;;;;21.12;64.91;102559.97;4948188;28;20513;-79
2022/08/31 10:31:22;;;;;;;1.55;0.60;;;;;;;21.07;66.18;102558.25;4973115;28;20391;-80
2022/08/31 10:36:53;;;;;;;0.50;0.50;;;;;;;21.03;61.06;102558.28;4975778;28;20037;-79
2022/08/31 10:39:24;;;;;;;1.13;0.43;;;;;;;21.06;62.27;102552.00;4937843;28;20066;-83
2022/08/31 10:41:53;;;;;;;0.60;0.60;;;;;;;21.12;61.76;102549.25;4990451;28;20061;-81
2022/08/31 10:44:39;;;;;;;0.40;0.40;;;;;;;21.19;61.67;102552.69;4921289;28;20051;-81
2022/08/31 10:47:14;;;;;;;0.77;0.70;;;;;;;21.28;62.86;102541.84;4982298;28;20053;-81
2022/08/31 10:50:03;;;;;;;0.82;0.50;;;;;;;21.42;62.82;102547.03;4957199;28;20531;-81
2022/08/31 10:52:56;;;;;;;1.65;0.60;;;;;;;21.47;61.52;102531.75;4964119;28;20061;-78
2022/08/31 10:55:36;;;;;;;0.57;0.57;;;;;;;21.50;62.04;102538.91;4976404;28;20073;-78
2022/08/31 10:58:25;;;;;;;1.83;0.50;;;;;;;21.45;61.11;102540.75;5002867;28;20057;-79
2022/08/31 11:01:35;;;;;;;1.33;0.70;;;;;;;21.38;61.32;102531.91;4965747;28;20057;-78
2022/08/31 11:04:22;;;;;;;1.27;0.60;;;;;;;21.31;58.08;102530.22;4967280;28;20500;-79
2022/08/31 11:07:28;;;;;;;0.93;0.60;;;;;;;21.32;61.41;102531.97;4976357;28;20055;-78
2022/08/31 11:10:18;;;;;;;0.60;0.60;;;;;;;21.30;59.77;102529.31;4975031;28;20050;-79
2022/08/31 11:12:55;;;;;;;1.25;0.70;;;;;;;21.30;60.87;102528.41;5001098;28;20054;-78
2022/08/31 11:15:33;;;;;;;6.78;2.00;;;;;;;21.34;61.01;102520.31;4959891;28;20560;-78
2022/08/31 11:18:38;;;;;;;0.90;0.50;;;;;;;21.42;58.98;102531.81;4998133;28;20050;-78
2022/08/31 11:21:34;;;;;;;0.60;0.60;;;;;;;21.38;59.48;102519.38;5007325;28;20106;-78
2022/08/31 11:24:19;;;;;;;1.08;0.52;;;;;;;21.48;59.52;102501.38;4966399;28;20284;-77
2022/08/31 11:27:17;;;;;;;1.92;0.50;;;;;;;21.51;59.85;102501.31;4951516;28;20030;-78
2022/08/31 11:30:11;;;;;;;1.15;0.63;;;;;;;21.52;58.79;102518.28;4976467;28;20507;-78
2022/08/31 11:32:49;;;;;;;4.85;0.93;;;;;;;21.46;57.64;102518.41;4934359;28;20047;-79
2022/08/31 11:36:09;;;;;;;1.48;1.08;;;;;;;21.43;59.33;102509.44;4994032;28;20514;-78
2022/08/31 11:38:55;;;;;;;0.40;0.40;;;;;;;21.59;57.94;102506.56;4989355;28;20046;-78
2022/08/31 11:41:45;;;;;;;0.65;0.60;;;;;;;21.76;58.92;102500.91;4990208;28;20039;-78
2022/08/31 11:44:29;;;;;;;0.50;0.50;;;;;;;21.94;58.37;102497.00;4977873;28;20055;-77
2022/08/31 11:47:19;;;;;;;0.82;0.65;;;;;;;22.04;57.06;102501.31;4935725;28;20273;-78
2022/08/31 11:49:54;;;;;;;3.13;0.60;;;;;;;22.07;56.23;102492.28;4991144;28;20047;-79
2022/08/31 11:52:43;;;;;;;0.85;0.85;;;;;;;22.08;54.12;102505.69;4987090;28;20049;-79
2022/08/31 11:55:25;;;;;;;0.43;0.43;;;;;;;21.99;54.16;102506.75;4967736;28;20573;-79
2022/08/31 11:58:06;;;;;;;0.65;0.60;;;;;;;21.96;55.10;102497.84;4982079;28;20028;-79
2022/08/31 12:01:08;;;;;;;0.57;0.52;;;;;;;22.00;54.31;102487.03;4990222;28;20054;-79
2022/08/31 12:03:50;;;;;;;1.85;1.17;;;;;;;22.14;54.33;102486.78;4944867;28;20061;-77
2022/08/31 12:06:26;;;;;;;0.93;0.93;;;;;;;22.25;54.96;102486.59;4990607;28;20492;-78
2022/08/31 12:09:18;;;;;;;1.35;0.43;;;;;;;22.32;54.45;102498.09;4959054;28;20495;-78
2022/08/31 12:11:52;;;;;;;1.25;0.80;;;;;;;22.35;53.76;102473.88;4970401;28;20055;-79
2022/08/31 12:14:50;;;;;;;1.05;0.70;;;;;;;22.40;53.04;102477.38;4989071;28;20046;-78
2022/08/31 12:17:45;;;;;;;0.50;0.50;;;;;;;22.42;53.54;102475.53;4993743;28;20038;-78
2022/08/31 12:23:38;;;;;;;1.38;0.55;;;;;;;22.31;51.84;102469.50;4995812;28;20034;-77
2022/08/31 12:26:28;;;;;;;1.65;0.70;;;;;;;22.28;51.98;102473.09;4980493;28;20341;-77
2022/08/31 12:29:11;;;;;;;0.77;0.50;;;;;;;22.30;52.46;102475.75;4970527;28;20046;-77